Sunday, February 17, 2019, 3:05 PM EST
Back to Local

KBGR, Bangor Int'l Airport

Location: Bangor, ME, United States Lat: 44.8
Local Time: 3:05 PM EST (20:05 GMT) Lon: -68.817
Time Zone: US/Eastern Elev: 193 ft

Show me the last for .
Show Coded

Time T Td Feel RH Dir Speed Gust Alt SLP Vis Weather Sky Remarks
2019-02-17 14:53 27 2 18 33 330° 9 - 30.04 30.05 10 FEW250 None
2019-02-17 13:53 26 1 14 33 340° 15 - 30.05 30.06 10 FEW250 None
2019-02-17 12:53 24 0 12 34 340° 14 - 30.06 30.07 10 FEW250 Snow depth: 7"
6-hr Min Temp (1pm): 12.9°F
6-hr Max Temp (1pm): 25.0°F
2019-02-17 11:53 23 3 10 41 340° 15 - 30.08 30.09 10 FEW250 None
2019-02-17 10:53 20 3 10 47 320° 8 - 30.08 30.09 10 FEW250 None
2019-02-17 09:53 18 4 5 53 320° 13 - 30.10 30.11 10 CLR None
2019-02-17 08:53 16 2 2 53 320° 13 - 30.09 30.10 10 CLR None
2019-02-17 07:53 15 2 1 55 310° 13 - 30.07 30.08 10 CLR None
2019-02-17 06:53 14 3 -4 60 320° 16 21 30.04 30.05 10 FEW150 Snow depth: 7"
6-hr Min Temp (7am): 14.0°F
6-hr Max Temp (7am): 19.9°F
2019-02-17 05:53 15 5 8 63 250° 5 - 30.01 30.03 10 FEW150 None
2019-02-17 04:53 17 6 4 61 300° 12 - 30.00 30.01 10 SCT150 None
2019-02-17 03:53 17 7 8 63 310° 7 - 29.98 29.99 10 BKN150 None
2019-02-17 02:53 17 8 9 67 310° 6 - 29.97 29.98 10 SCT150 None
2019-02-17 01:53 19 8 10 61 300° 7 - 29.95 29.96 10 FEW180 None
2019-02-17 00:53 19 8 2 61 310° 14 24 29.92 29.93 10 CLR Snow depth: 7"
6-hr Min Temp (1am): 18.0°F
6-hr Max Temp (1am): 28.9°F
2019-02-16 23:53 20 8 2 59 320° 16 28 29.92 29.92 10 CLR 24-hr Min Temp (12am): 19.9°F
24-hr Max Temp (12am): 43.0°F
2019-02-16 22:53 22 10 10 59 310° 12 - 29.89 29.90 10 CLR None
2019-02-16 21:53 23 10 7 56 310° 15 24 29.88 29.88 10 CLR None
2019-02-16 20:53 24 13 9 61 330° 22 - 29.87 29.88 10 SCT035 Peak wind: 32 mph (28 kts) from 320° at 20 min
2019-02-16 19:53 28 14 19 55 290° 10 - 29.83 29.84 10 OVC036 None
2019-02-16 18:53 29 15 20 55 300° 10 - 29.81 29.82 10 FEW044 Snow depth: 7"
6-hr Min Temp (7pm): 28.9°F
6-hr Max Temp (7pm): 35.1°F
2019-02-16 17:53 31 16 22 53 300° 12 - 29.78 29.79 10 SCT044 None
2019-02-16 16:53 33 17 22 51 290° 10 18 29.74 29.74 10 BKN048 None
2019-02-16 15:53 34 18 26 51 300° 10 - 29.71 29.72 10 BKN045 None

Support USWX by starting your Amazon purchase here.